sensor_id;sensor_type;location;lat;lon;timestamp;pressure;altitude;pressure_sealevel;temperature;humidity
4576;BME280;2300;51.874;8.430;2023-05-20T00:02:18;101517.16;;;13.28;63.34
4576;BME280;2300;51.874;8.430;2023-05-20T00:04:44;101522.97;;;13.38;63.08
4576;BME280;2300;51.874;8.430;2023-05-20T00:07:10;101514.72;;;13.38;63.73
4576;BME280;2300;51.874;8.430;2023-05-20T00:09:37;101510.44;;;13.24;63.25
4576;BME280;2300;51.874;8.430;2023-05-20T00:12:05;101506.13;;;13.28;63.35
4576;BME280;2300;51.874;8.430;2023-05-20T00:14:31;101520.06;;;13.33;63.71
4576;BME280;2300;51.874;8.430;2023-05-20T00:16:57;101521.47;;;13.24;64.30
4576;BME280;2300;51.874;8.430;2023-05-20T00:19:25;101472.13;;;12.98;64.68
4576;BME280;2300;51.874;8.430;2023-05-20T00:21:51;101515.19;;;13.17;63.99
4576;BME280;2300;51.874;8.430;2023-05-20T00:24:18;101515.19;;;13.17;64.42
4576;BME280;2300;51.874;8.430;2023-05-20T00:26:44;101510.06;;;13.20;64.25
4576;BME280;2300;51.874;8.430;2023-05-20T00:29:11;101509.81;;;13.04;63.96
4576;BME280;2300;51.874;8.430;2023-05-20T00:31:37;101512.91;;;13.14;64.56
4576;BME280;2300;51.874;8.430;2023-05-20T00:34:03;101515.66;;;13.14;64.48
4576;BME280;2300;51.874;8.430;2023-05-20T00:36:31;101513.97;;;13.13;64.41
4576;BME280;2300;51.874;8.430;2023-05-20T00:38:58;101514.88;;;13.07;64.34
4576;BME280;2300;51.874;8.430;2023-05-20T00:41:24;101518.41;;;13.14;64.56
4576;BME280;2300;51.874;8.430;2023-05-20T00:43:52;101499.72;;;12.98;64.51
4576;BME280;2300;51.874;8.430;2023-05-20T00:46:18;101503.41;;;13.10;64.89
4576;BME280;2300;51.874;8.430;2023-05-20T00:48:45;101505.22;;;12.98;65.26
4576;BME280;2300;51.874;8.430;2023-05-20T00:51:12;101512.88;;;12.95;65.33
4576;BME280;2300;51.874;8.430;2023-05-20T00:53:41;101489.59;;;12.91;65.07
4576;BME280;2300;51.874;8.430;2023-05-20T00:56:08;101508.19;;;12.96;65.27
4576;BME280;2300;51.874;8.430;2023-05-20T00:58:35;101509.50;;;12.93;65.28
4576;BME280;2300;51.874;8.430;2023-05-20T01:01:02;101513.72;;;12.96;65.36
4576;BME280;2300;51.874;8.430;2023-05-20T01:03:28;101512.13;;;12.88;65.54
4576;BME280;2300;51.874;8.430;2023-05-20T01:16:10;101496.06;;;12.79;66.07
4576;BME280;2300;51.874;8.430;2023-05-20T01:18:38;101497.03;;;12.66;66.54
4576;BME280;2300;51.874;8.430;2023-05-20T01:21:07;101498.56;;;12.62;66.67
4576;BME280;2300;51.874;8.430;2023-05-20T01:23:39;101460.41;;;12.41;66.57
4576;BME280;2300;51.874;8.430;2023-05-20T01:26:06;101503.06;;;12.57;66.95
4576;BME280;2300;51.874;8.430;2023-05-20T01:28:33;101504.72;;;12.64;67.09
4576;BME280;2300;51.874;8.430;2023-05-20T01:31:01;101449.53;;;12.28;67.24
4576;BME280;2300;51.874;8.430;2023-05-20T01:33:31;101490.78;;;12.59;67.01
4576;BME280;2300;51.874;8.430;2023-05-20T01:36:00;101487.09;;;12.65;67.10
4576;BME280;2300;51.874;8.430;2023-05-20T01:38:26;101492.44;;;12.60;67.11
4576;BME280;2300;51.874;8.430;2023-05-20T01:40:56;101465.06;;;12.40;67.13
4576;BME280;2300;51.874;8.430;2023-05-20T01:43:24;101501.00;;;12.52;67.85
4576;BME280;2300;51.874;8.430;2023-05-20T01:45:51;101490.41;;;12.49;67.64
4576;BME280;2300;51.874;8.430;2023-05-20T01:48:17;101451.59;;;12.32;67.69
4576;BME280;2300;51.874;8.430;2023-05-20T01:50:44;101486.06;;;12.60;67.56
4576;BME280;2300;51.874;8.430;2023-05-20T01:53:10;101484.47;;;12.52;67.77
4576;BME280;2300;51.874;8.430;2023-05-20T01:55:37;101487.66;;;12.49;67.95
4576;BME280;2300;51.874;8.430;2023-05-20T01:58:05;101330.47;;;11.58;68.21
4576;BME280;2300;51.874;8.430;2023-05-20T02:00:32;101469.53;;;12.41;68.30
4576;BME280;2300;51.874;8.430;2023-05-20T02:02:59;101460.47;;;12.34;68.51
4576;BME280;2300;51.874;8.430;2023-05-20T02:05:27;101486.25;;;12.40;68.63
4576;BME280;2300;51.874;8.430;2023-05-20T02:07:53;101470.31;;;12.24;68.63
4576;BME280;2300;51.874;8.430;2023-05-20T02:10:20;101491.59;;;12.35;68.60
4576;BME280;2300;51.874;8.430;2023-05-20T02:12:46;101473.53;;;12.21;68.84
4576;BME280;2300;51.874;8.430;2023-05-20T02:15:15;101480.88;;;12.27;69.13
4576;BME280;2300;51.874;8.430;2023-05-20T02:17:41;101469.53;;;12.17;68.61
4576;BME280;2300;51.874;8.430;2023-05-20T02:20:09;101467.50;;;12.05;69.16
4576;BME280;2300;51.874;8.430;2023-05-20T02:22:35;101437.59;;;11.84;69.11
4576;BME280;2300;51.874;8.430;2023-05-20T02:25:02;101484.63;;;12.07;69.67
4576;BME280;2300;51.874;8.430;2023-05-20T02:27:29;101490.97;;;12.08;69.45
4576;BME280;2300;51.874;8.430;2023-05-20T02:29:55;101483.22;;;11.98;70.18
4576;BME280;2300;51.874;8.430;2023-05-20T02:32:23;101478.16;;;11.95;70.21
4576;BME280;2300;51.874;8.430;2023-05-20T02:34:52;101483.22;;;11.98;69.88
4576;BME280;2300;51.874;8.430;2023-05-20T02:37:18;101483.50;;;11.90;70.29
4576;BME280;2300;51.874;8.430;2023-05-20T02:39:45;101489.22;;;11.89;70.10
4576;BME280;2300;51.874;8.430;2023-05-20T02:42:11;101473.75;;;11.88;70.48
4576;BME280;2300;51.874;8.430;2023-05-20T02:44:38;101474.88;;;11.80;70.71
4576;BME280;2300;51.874;8.430;2023-05-20T02:47:05;101477.22;;;11.77;70.84
4576;BME280;2300;51.874;8.430;2023-05-20T02:49:33;101476.22;;;11.71;70.88
4576;BME280;2300;51.874;8.430;2023-05-20T02:52:00;101474.06;;;11.73;70.71
4576;BME280;2300;51.874;8.430;2023-05-20T02:54:27;101476.81;;;11.73;71.02
4576;BME280;2300;51.874;8.430;2023-05-20T02:56:53;101417.59;;;11.33;71.24
4576;BME280;2300;51.874;8.430;2023-05-20T02:59:19;101469.06;;;11.57;70.94
4576;BME280;2300;51.874;8.430;2023-05-20T03:01:46;101475.00;;;11.54;71.99
4576;BME280;2300;51.874;8.430;2023-05-20T03:04:12;101470.75;;;11.58;71.86
4576;BME280;2300;51.874;8.430;2023-05-20T03:06:40;101378.84;;;11.03;71.84
4576;BME280;2300;51.874;8.430;2023-05-20T03:09:08;101475.91;;;11.41;72.16
4576;BME280;2300;51.874;8.430;2023-05-20T03:11:35;101470.38;;;11.48;72.04
4576;BME280;2300;51.874;8.430;2023-05-20T03:14:02;101447.66;;;11.27;72.42
4576;BME280;2300;51.874;8.430;2023-05-20T03:16:28;101473.81;;;11.37;72.64
4576;BME280;2300;51.874;8.430;2023-05-20T03:18:54;101473.84;;;11.30;72.60
4576;BME280;2300;51.874;8.430;2023-05-20T03:21:21;101451.34;;;11.08;73.74
4576;BME280;2300;51.874;8.430;2023-05-20T03:23:49;101475.16;;;11.21;73.70
4576;BME280;2300;51.874;8.430;2023-05-20T03:26:16;101474.97;;;11.16;73.36
4576;BME280;2300;51.874;8.430;2023-05-20T03:28:42;101481.13;;;11.11;73.61
4576;BME280;2300;51.874;8.430;2023-05-20T03:31:08;101476.94;;;11.09;74.31
4576;BME280;2300;51.874;8.430;2023-05-20T03:33:35;101476.47;;;11.12;73.89
4576;BME280;2300;51.874;8.430;2023-05-20T03:36:01;101470.16;;;11.05;73.62
4576;BME280;2300;51.874;8.430;2023-05-20T03:38:28;101481.34;;;11.10;74.20
4576;BME280;2300;51.874;8.430;2023-05-20T03:40:56;101483.22;;;11.09;74.32
4576;BME280;2300;51.874;8.430;2023-05-20T03:43:22;101460.88;;;10.99;74.25
4576;BME280;2300;51.874;8.430;2023-05-20T03:45:49;101481.97;;;11.12;74.46
4576;BME280;2300;51.874;8.430;2023-05-20T03:48:15;101494.88;;;11.11;74.13
4576;BME280;2300;51.874;8.430;2023-05-20T03:50:42;101473.94;;;11.10;74.08
4576;BME280;2300;51.874;8.430;2023-05-20T03:53:08;101467.84;;;11.08;74.10
4576;BME280;2300;51.874;8.430;2023-05-20T03:55:35;101476.22;;;11.20;74.22
4576;BME280;2300;51.874;8.430;2023-05-20T03:58:02;101477.31;;;11.12;73.77
4576;BME280;2300;51.874;8.430;2023-05-20T04:00:29;101462.81;;;10.92;74.11
4576;BME280;2300;51.874;8.430;2023-05-20T04:02:57;101474.38;;;11.07;74.67
4576;BME280;2300;51.874;8.430;2023-05-20T04:05:23;101482.38;;;11.15;74.08
4576;BME280;2300;51.874;8.430;2023-05-20T04:07:50;101464.25;;;11.01;74.18
4576;BME280;2300;51.874;8.430;2023-05-20T04:10:18;101467.63;;;11.03;74.50
4576;BME280;2300;51.874;8.430;2023-05-20T04:12:44;101473.56;;;11.00;75.00
4576;BME280;2300;51.874;8.430;2023-05-20T04:15:12;101441.69;;;10.93;74.68
4576;BME280;2300;51.874;8.430;2023-05-20T04:17:39;101462.38;;;10.95;74.76
4576;BME280;2300;51.874;8.430;2023-05-20T04:20:06;101475.63;;;11.11;74.53
4576;BME280;2300;51.874;8.430;2023-05-20T04:22:34;101471.63;;;11.07;75.18
4576;BME280;2300;51.874;8.430;2023-05-20T04:25:01;101481.13;;;11.11;75.14
4576;BME280;2300;51.874;8.430;2023-05-20T04:27:29;101468.25;;;11.05;74.87
4576;BME280;2300;51.874;8.430;2023-05-20T04:29:55;101456.19;;;11.06;75.14
4576;BME280;2300;51.874;8.430;2023-05-20T04:32:24;101478.13;;;11.19;75.09
4576;BME280;2300;51.874;8.430;2023-05-20T04:34:56;101477.03;;;11.34;74.99
4576;BME280;2300;51.874;8.430;2023-05-20T04:37:24;101475.97;;;11.35;74.46
4576;BME280;2300;51.874;8.430;2023-05-20T04:39:50;101483.13;;;11.36;74.62
4576;BME280;2300;51.874;8.430;2023-05-20T04:42:16;101464.53;;;11.38;74.27
4576;BME280;2300;51.874;8.430;2023-05-20T04:44:44;101478.34;;;11.69;74.14
4576;BME280;2300;51.874;8.430;2023-05-20T04:47:12;101478.44;;;12.62;72.21
4576;BME280;2300;51.874;8.430;2023-05-20T04:49:40;101479.25;;;13.23;69.24
4576;BME280;2300;51.874;8.430;2023-05-20T04:52:06;101467.94;;;13.61;67.71
4576;BME280;2300;51.874;8.430;2023-05-20T04:54:33;101474.53;;;13.60;67.89
4576;BME280;2300;51.874;8.430;2023-05-20T04:56:59;101482.31;;;13.93;66.61
4576;BME280;2300;51.874;8.430;2023-05-20T04:59:27;101424.31;;;13.81;65.75
4576;BME280;2300;51.874;8.430;2023-05-20T05:01:53;101425.66;;;13.49;66.58
4576;BME280;2300;51.874;8.430;2023-05-20T05:04:19;101406.03;;;13.57;66.81
4576;BME280;2300;51.874;8.430;2023-05-20T05:06:48;101472.25;;;14.40;65.54
4576;BME280;2300;51.874;8.430;2023-05-20T05:09:14;101477.69;;;14.05;65.60
4576;BME280;2300;51.874;8.430;2023-05-20T05:11:41;101472.59;;;13.91;66.22
4576;BME280;2300;51.874;8.430;2023-05-20T05:14:07;101469.19;;;13.47;67.15
4576;BME280;2300;51.874;8.430;2023-05-20T05:16:34;101460.34;;;12.90;69.08
4576;BME280;2300;51.874;8.430;2023-05-20T05:19:00;101455.22;;;12.33;70.69
4576;BME280;2300;51.874;8.430;2023-05-20T05:21:27;101456.28;;;12.32;71.45
4576;BME280;2300;51.874;8.430;2023-05-20T05:23:54;101447.59;;;12.03;71.82
4576;BME280;2300;51.874;8.430;2023-05-20T05:26:22;101464.41;;;11.95;72.86
4576;BME280;2300;51.874;8.430;2023-05-20T05:28:49;101439.31;;;11.79;73.27
4576;BME280;2300;51.874;8.430;2023-05-20T05:31:15;101472.91;;;11.87;73.63
4576;BME280;2300;51.874;8.430;2023-05-20T05:33:42;101475.63;;;11.94;73.70
4576;BME280;2300;51.874;8.430;2023-05-20T05:36:08;101438.94;;;11.75;73.54
4576;BME280;2300;51.874;8.430;2023-05-20T05:38:35;101473.44;;;12.02;73.75
4576;BME280;2300;51.874;8.430;2023-05-20T05:41:02;101473.59;;;12.07;73.55
4576;BME280;2300;51.874;8.430;2023-05-20T05:43:29;101478.22;;;12.13;73.76
4576;BME280;2300;51.874;8.430;2023-05-20T05:45:55;101453.09;;;12.03;73.20
4576;BME280;2300;51.874;8.430;2023-05-20T05:48:22;101440.88;;;11.99;73.29
4576;BME280;2300;51.874;8.430;2023-05-20T05:50:48;101469.19;;;12.06;74.18
4576;BME280;2300;51.874;8.430;2023-05-20T05:53:15;101473.06;;;12.24;73.97
4576;BME280;2300;51.874;8.430;2023-05-20T05:55:42;101466.94;;;12.22;73.94
4576;BME280;2300;51.874;8.430;2023-05-20T05:58:09;101477.88;;;12.28;74.39
4576;BME280;2300;51.874;8.430;2023-05-20T06:00:36;101483.84;;;12.50;74.03
4576;BME280;2300;51.874;8.430;2023-05-20T06:03:03;101473.41;;;12.59;73.87
4576;BME280;2300;51.874;8.430;2023-05-20T06:05:29;101458.78;;;12.58;73.78
4576;BME280;2300;51.874;8.430;2023-05-20T06:07:56;101476.69;;;12.67;73.22
4576;BME280;2300;51.874;8.430;2023-05-20T06:10:22;101470.78;;;12.64;73.20
4576;BME280;2300;51.874;8.430;2023-05-20T06:12:49;101429.09;;;12.35;73.28
4576;BME280;2300;51.874;8.430;2023-05-20T06:15:17;101474.66;;;12.56;73.91
4576;BME280;2300;51.874;8.430;2023-05-20T06:17:43;101467.41;;;12.62;74.13
4576;BME280;2300;51.874;8.430;2023-05-20T06:20:10;101475.09;;;12.78;73.19
4576;BME280;2300;51.874;8.430;2023-05-20T06:22:37;101475.25;;;12.83;73.75
4576;BME280;2300;51.874;8.430;2023-05-20T06:25:04;101442.41;;;12.63;73.87
4576;BME280;2300;51.874;8.430;2023-05-20T06:27:30;101475.97;;;12.96;73.78
4576;BME280;2300;51.874;8.430;2023-05-20T06:29:57;101461.03;;;13.04;73.24
4576;BME280;2300;51.874;8.430;2023-05-20T06:32:25;101464.81;;;13.10;72.93
4576;BME280;2300;51.874;8.430;2023-05-20T06:34:51;101472.66;;;13.24;73.29
4576;BME280;2300;51.874;8.430;2023-05-20T06:37:17;101463.81;;;13.52;72.80
4576;BME280;2300;51.874;8.430;2023-05-20T06:39:44;101463.97;;;13.57;72.16
4576;BME280;2300;51.874;8.430;2023-05-20T06:42:11;101450.13;;;13.46;71.45
4576;BME280;2300;51.874;8.430;2023-05-20T06:44:38;101461.66;;;13.54;72.11
4576;BME280;2300;51.874;8.430;2023-05-20T06:47:04;101458.72;;;13.67;72.33
4576;BME280;2300;51.874;8.430;2023-05-20T06:49:32;101458.75;;;13.79;72.21
4576;BME280;2300;51.874;8.430;2023-05-20T06:51:58;101456.88;;;13.91;71.96
4576;BME280;2300;51.874;8.430;2023-05-20T06:54:25;101447.88;;;13.96;71.24
4576;BME280;2300;51.874;8.430;2023-05-20T06:56:51;101458.44;;;13.99;71.50
4576;BME280;2300;51.874;8.430;2023-05-20T06:59:17;101451.53;;;14.08;70.69
4576;BME280;2300;51.874;8.430;2023-05-20T07:01:44;101446.97;;;14.02;70.94
4576;BME280;2300;51.874;8.430;2023-05-20T07:04:10;101444.94;;;14.09;71.52
4576;BME280;2300;51.874;8.430;2023-05-20T07:06:38;101435.13;;;13.95;71.94
4576;BME280;2300;51.874;8.430;2023-05-20T07:09:04;101434.03;;;14.14;71.62
4576;BME280;2300;51.874;8.430;2023-05-20T07:11:31;101431.13;;;14.09;71.87
4576;BME280;2300;51.874;8.430;2023-05-20T07:13:57;101443.25;;;14.31;72.01
4576;BME280;2300;51.874;8.430;2023-05-20T07:16:24;101427.78;;;14.53;70.96
4576;BME280;2300;51.874;8.430;2023-05-20T07:18:50;101428.84;;;14.41;71.28
4576;BME280;2300;51.874;8.430;2023-05-20T07:21:17;101436.06;;;14.65;71.86
4576;BME280;2300;51.874;8.430;2023-05-20T07:23:45;101417.28;;;14.90;71.54
4576;BME280;2300;51.874;8.430;2023-05-20T07:26:11;101421.19;;;15.06;71.10
4576;BME280;2300;51.874;8.430;2023-05-20T07:28:38;101407.50;;;15.11;70.05
4576;BME280;2300;51.874;8.430;2023-05-20T07:31:04;101413.66;;;15.01;69.59
4576;BME280;2300;51.874;8.430;2023-05-20T07:33:31;101365.63;;;14.67;70.07
4576;BME280;2300;51.874;8.430;2023-05-20T07:35:57;101417.72;;;15.11;70.61
4576;BME280;2300;51.874;8.430;2023-05-20T07:38:23;101418.00;;;15.37;69.29
4576;BME280;2300;51.874;8.430;2023-05-20T07:40:51;101415.59;;;15.29;69.02
4576;BME280;2300;51.874;8.430;2023-05-20T07:43:18;101405.47;;;15.63;69.92
4576;BME280;2300;51.874;8.430;2023-05-20T07:45:45;101388.91;;;15.80;68.63
4576;BME280;2300;51.874;8.430;2023-05-20T07:48:12;101365.22;;;16.22;67.14
4576;BME280;2300;51.874;8.430;2023-05-20T07:50:39;101395.75;;;16.61;66.22
4576;BME280;2300;51.874;8.430;2023-05-20T07:53:05;101390.06;;;16.51;66.38
4576;BME280;2300;51.874;8.430;2023-05-20T07:55:32;101352.31;;;16.88;66.50
4576;BME280;2300;51.874;8.430;2023-05-20T07:58:01;101390.09;;;17.38;63.95
4576;BME280;2300;51.874;8.430;2023-05-20T08:00:27;101385.56;;;17.32;63.67
4576;BME280;2300;51.874;8.430;2023-05-20T08:02:54;101379.28;;;17.14;65.89
4576;BME280;2300;51.874;8.430;2023-05-20T08:05:20;101374.09;;;17.01;64.47
4576;BME280;2300;51.874;8.430;2023-05-20T08:07:47;101309.47;;;16.79;64.73
4576;BME280;2300;51.874;8.430;2023-05-20T08:10:14;101385.75;;;17.20;66.30
4576;BME280;2300;51.874;8.430;2023-05-20T08:12:40;101374.03;;;17.40;65.72
4576;BME280;2300;51.874;8.430;2023-05-20T08:15:09;101392.13;;;17.74;64.04
4576;BME280;2300;51.874;8.430;2023-05-20T08:17:35;101386.66;;;17.84;64.55
4576;BME280;2300;51.874;8.430;2023-05-20T08:20:03;101386.66;;;17.84;64.06
4576;BME280;2300;51.874;8.430;2023-05-20T08:22:32;101388.63;;;17.30;63.91
4576;BME280;2300;51.874;8.430;2023-05-20T08:24:58;101384.97;;;17.25;64.54
4576;BME280;2300;51.874;8.430;2023-05-20T08:27:25;101362.56;;;16.88;64.83
4576;BME280;2300;51.874;8.430;2023-05-20T08:29:51;101374.88;;;17.18;64.67
4576;BME280;2300;51.874;8.430;2023-05-20T08:32:19;101370.72;;;17.43;64.33
4576;BME280;2300;51.874;8.430;2023-05-20T08:34:45;101365.06;;;17.33;64.47
4576;BME280;2300;51.874;8.430;2023-05-20T08:37:15;101377.59;;;17.67;64.53
4576;BME280;2300;51.874;8.430;2023-05-20T08:39:41;101387.25;;;17.86;64.18
4576;BME280;2300;51.874;8.430;2023-05-20T08:42:10;101378.81;;;18.03;63.15
4576;BME280;2300;51.874;8.430;2023-05-20T08:44:37;101377.34;;;17.95;64.18
4576;BME280;2300;51.874;8.430;2023-05-20T08:47:06;101379.13;;;18.07;63.63
4576;BME280;2300;51.874;8.430;2023-05-20T08:49:35;101388.50;;;18.37;62.73
4576;BME280;2300;51.874;8.430;2023-05-20T08:52:01;101369.84;;;18.33;62.09
4576;BME280;2300;51.874;8.430;2023-05-20T08:54:38;101373.50;;;18.38;61.88
4576;BME280;2300;51.874;8.430;2023-05-20T08:57:08;101382.59;;;18.24;62.48
4576;BME280;2300;51.874;8.430;2023-05-20T08:59:35;101374.16;;;18.14;62.04
4576;BME280;2300;51.874;8.430;2023-05-20T09:02:02;101384.97;;;18.10;62.25
4576;BME280;2300;51.874;8.430;2023-05-20T09:04:28;101374.56;;;17.95;62.91
4576;BME280;2300;51.874;8.430;2023-05-20T09:06:56;101378.09;;;18.18;63.32
4576;BME280;2300;51.874;8.430;2023-05-20T09:09:22;101388.41;;;18.64;61.73
4576;BME280;2300;51.874;8.430;2023-05-20T09:11:49;101393.25;;;18.84;62.38
4576;BME280;2300;51.874;8.430;2023-05-20T09:14:15;101353.91;;;18.60;61.58
4576;BME280;2300;51.874;8.430;2023-05-20T09:16:42;101390.34;;;19.21;61.82
4576;BME280;2300;51.874;8.430;2023-05-20T09:19:09;101382.06;;;19.41;59.28
4576;BME280;2300;51.874;8.430;2023-05-20T09:21:35;101380.06;;;19.26;59.98
4576;BME280;2300;51.874;8.430;2023-05-20T09:24:04;101373.69;;;19.36;61.40
4576;BME280;2300;51.874;8.430;2023-05-20T09:26:31;101365.59;;;19.35;60.85
4576;BME280;2300;51.874;8.430;2023-05-20T09:28:58;101369.53;;;19.54;60.34
4576;BME280;2300;51.874;8.430;2023-05-20T09:31:25;101384.84;;;19.36;59.34
4576;BME280;2300;51.874;8.430;2023-05-20T09:33:53;101376.44;;;19.21;61.34
4576;BME280;2300;51.874;8.430;2023-05-20T09:36:21;101370.66;;;18.75;59.95
4576;BME280;2300;51.874;8.430;2023-05-20T09:38:51;101352.16;;;18.49;61.20
4576;BME280;2300;51.874;8.430;2023-05-20T09:41:22;101368.31;;;19.09;62.58
4576;BME280;2300;51.874;8.430;2023-05-20T09:43:51;101359.16;;;19.14;61.96
4576;BME280;2300;51.874;8.430;2023-05-20T09:46:18;101355.84;;;19.22;62.04
4576;BME280;2300;51.874;8.430;2023-05-20T09:48:45;101361.53;;;19.83;59.67
4576;BME280;2300;51.874;8.430;2023-05-20T09:51:12;101350.94;;;19.80;58.19
4576;BME280;2300;51.874;8.430;2023-05-20T09:53:40;101371.47;;;19.38;59.40
4576;BME280;2300;51.874;8.430;2023-05-20T09:56:07;101357.97;;;18.95;59.58
4576;BME280;2300;51.874;8.430;2023-05-20T09:58:35;101337.09;;;18.97;61.96
4576;BME280;2300;51.874;8.430;2023-05-20T10:01:02;101345.78;;;19.11;59.96
4576;BME280;2300;51.874;8.430;2023-05-20T10:03:28;101324.00;;;18.93;59.66
4576;BME280;2300;51.874;8.430;2023-05-20T10:06:18;101349.47;;;19.32;59.07
4576;BME280;2300;51.874;8.430;2023-05-20T10:09:04;101344.25;;;19.65;59.65
4576;BME280;2300;51.874;8.430;2023-05-20T10:11:44;101359.31;;;20.00;58.09
4576;BME280;2300;51.874;8.430;2023-05-20T10:14:24;101354.00;;;20.13;58.14
4576;BME280;2300;51.874;8.430;2023-05-20T10:17:00;101340.63;;;20.00;58.73
4576;BME280;2300;51.874;8.430;2023-05-20T10:19:33;101351.22;;;20.03;60.46
4576;BME280;2300;51.874;8.430;2023-05-20T10:22:01;101349.56;;;19.77;58.64
4576;BME280;2300;51.874;8.430;2023-05-20T10:24:29;101337.00;;;19.69;58.70
4576;BME280;2300;51.874;8.430;2023-05-20T10:26:57;101347.84;;;19.61;58.94
4576;BME280;2300;51.874;8.430;2023-05-20T10:29:25;101338.09;;;19.63;58.32
4576;BME280;2300;51.874;8.430;2023-05-20T10:31:52;101341.97;;;19.37;58.74
4576;BME280;2300;51.874;8.430;2023-05-20T10:34:20;101342.78;;;19.22;59.05
4576;BME280;2300;51.874;8.430;2023-05-20T10:36:56;101335.25;;;19.38;59.60
4576;BME280;2300;51.874;8.430;2023-05-20T10:39:25;101333.06;;;19.55;59.48
4576;BME280;2300;51.874;8.430;2023-05-20T10:41:52;101333.69;;;19.73;60.23
4576;BME280;2300;51.874;8.430;2023-05-20T10:44:40;101336.91;;;19.24;59.41
4576;BME280;2300;51.874;8.430;2023-05-20T10:47:08;101321.81;;;19.00;59.69
4576;BME280;2300;51.874;8.430;2023-05-20T10:49:34;101320.03;;;18.73;59.13
4576;BME280;2300;51.874;8.430;2023-05-20T10:52:01;101325.19;;;18.50;61.25
4576;BME280;2300;51.874;8.430;2023-05-20T10:54:28;101326.66;;;18.67;62.22
4576;BME280;2300;51.874;8.430;2023-05-20T10:57:05;101309.44;;;18.65;61.27
4576;BME280;2300;51.874;8.430;2023-05-20T10:59:32;101301.53;;;19.19;62.40
4576;BME280;2300;51.874;8.430;2023-05-20T11:02:00;101303.00;;;19.42;60.71
4576;BME280;2300;51.874;8.430;2023-05-20T11:04:28;101314.72;;;19.85;59.16
4576;BME280;2300;51.874;8.430;2023-05-20T11:06:56;101312.19;;;19.63;59.51
4576;BME280;2300;51.874;8.430;2023-05-20T11:09:22;101318.31;;;19.60;59.60
4576;BME280;2300;51.874;8.430;2023-05-20T11:11:50;101317.22;;;19.76;60.99
4576;BME280;2300;51.874;8.430;2023-05-20T11:14:17;101312.19;;;20.13;59.35
4576;BME280;2300;51.874;8.430;2023-05-20T11:16:44;101312.22;;;19.88;58.62
4576;BME280;2300;51.874;8.430;2023-05-20T11:19:15;101304.72;;;19.79;59.12
4576;BME280;2300;51.874;8.430;2023-05-20T11:21:43;101303.56;;;19.85;59.73
4576;BME280;2300;51.874;8.430;2023-05-20T11:24:10;101269.59;;;19.67;59.02
4576;BME280;2300;51.874;8.430;2023-05-20T11:26:36;101280.41;;;19.59;59.51
4576;BME280;2300;51.874;8.430;2023-05-20T11:29:03;101298.31;;;19.68;60.64
4576;BME280;2300;51.874;8.430;2023-05-20T11:31:29;101295.72;;;19.36;59.18
4576;BME280;2300;51.874;8.430;2023-05-20T11:33:58;101304.09;;;19.41;59.41
4576;BME280;2300;51.874;8.430;2023-05-20T11:36:26;101295.72;;;19.16;60.04
4576;BME280;2300;51.874;8.430;2023-05-20T11:38:56;101293.41;;;18.98;61.08
4576;BME280;2300;51.874;8.430;2023-05-20T11:41:23;101286.25;;;19.27;60.21
4576;BME280;2300;51.874;8.430;2023-05-20T11:43:55;101293.50;;;19.43;59.70
4576;BME280;2300;51.874;8.430;2023-05-20T11:46:22;101292.41;;;19.59;60.00
4576;BME280;2300;51.874;8.430;2023-05-20T11:48:51;101295.75;;;19.56;59.63
4576;BME280;2300;51.874;8.430;2023-05-20T11:51:19;101290.16;;;19.36;60.64
4576;BME280;2300;51.874;8.430;2023-05-20T11:53:49;101279.03;;;19.26;60.19
4576;BME280;2300;51.874;8.430;2023-05-20T11:56:15;101260.03;;;18.98;59.44
4576;BME280;2300;51.874;8.430;2023-05-20T11:58:42;101285.09;;;19.08;59.81
4576;BME280;2300;51.874;8.430;2023-05-20T12:01:09;101284.28;;;19.17;59.31
4576;BME280;2300;51.874;8.430;2023-05-20T12:03:35;101272.59;;;19.05;60.79
4576;BME280;2300;51.874;8.430;2023-05-20T12:06:02;101277.91;;;19.32;60.44
4576;BME280;2300;51.874;8.430;2023-05-20T12:08:29;101267.63;;;19.63;60.59
4576;BME280;2300;51.874;8.430;2023-05-20T12:10:56;101260.13;;;19.53;59.01
4576;BME280;2300;51.874;8.430;2023-05-20T12:13:23;101258.97;;;19.19;59.36
4576;BME280;2300;51.874;8.430;2023-05-20T12:15:49;101255.91;;;19.46;59.30
4576;BME280;2300;51.874;8.430;2023-05-20T12:18:16;101251.72;;;19.28;59.19
4576;BME280;2300;51.874;8.430;2023-05-20T12:20:42;101262.34;;;19.51;59.20
4576;BME280;2300;51.874;8.430;2023-05-20T12:23:08;101239.47;;;19.34;59.08
4576;BME280;2300;51.874;8.430;2023-05-20T12:25:35;101258.72;;;19.51;58.99
4576;BME280;2300;51.874;8.430;2023-05-20T12:28:03;101251.72;;;19.28;60.03
4576;BME280;2300;51.874;8.430;2023-05-20T12:30:30;101247.78;;;18.94;60.46
4576;BME280;2300;51.874;8.430;2023-05-20T12:32:57;101250.56;;;18.99;61.94
4576;BME280;2300;51.874;8.430;2023-05-20T12:35:24;101248.34;;;18.91;60.92
4576;BME280;2300;51.874;8.430;2023-05-20T12:37:52;101248.38;;;19.06;60.55
4576;BME280;2300;51.874;8.430;2023-05-20T12:40:19;101245.59;;;19.16;59.38
4576;BME280;2300;51.874;8.430;2023-05-20T12:42:45;101247.81;;;19.19;60.11
4576;BME280;2300;51.874;8.430;2023-05-20T12:45:13;101249.78;;;19.59;60.68
4576;BME280;2300;51.874;8.430;2023-05-20T12:47:40;101258.97;;;19.49;59.81
4576;BME280;2300;51.874;8.430;2023-05-20T12:50:06;101253.69;;;19.22;60.20
4576;BME280;2300;51.874;8.430;2023-05-20T12:52:33;101240.88;;;19.16;61.10
4576;BME280;2300;51.874;8.430;2023-05-20T12:54:59;101228.31;;;18.94;60.82
4576;BME280;2300;51.874;8.430;2023-05-20T12:57:26;101250.00;;;18.92;59.60
4576;BME280;2300;51.874;8.430;2023-05-20T12:59:52;101249.44;;;18.90;62.01
4576;BME280;2300;51.874;8.430;2023-05-20T13:02:20;101245.88;;;19.09;60.43
4576;BME280;2300;51.874;8.430;2023-05-20T13:04:46;101237.81;;;19.33;60.99
4576;BME280;2300;51.874;8.430;2023-05-20T13:07:13;101225.28;;;19.20;60.09
4576;BME280;2300;51.874;8.430;2023-05-20T13:09:39;101243.38;;;19.28;60.72
4576;BME280;2300;51.874;8.430;2023-05-20T13:12:06;101228.91;;;19.26;61.28
4576;BME280;2300;51.874;8.430;2023-05-20T13:14:33;101235.31;;;19.37;61.23
4576;BME280;2300;51.874;8.430;2023-05-20T13:16:59;101225.03;;;19.32;60.97
4576;BME280;2300;51.874;8.430;2023-05-20T13:19:27;101229.75;;;19.26;61.46
4576;BME280;2300;51.874;8.430;2023-05-20T13:21:53;101213.56;;;19.18;60.06